Schneifelwetter: Wetterstation Hallschlag, 537 m . NN
Wetterdaten: Freitag, 30.11.2012
Datum Zeit Temp. A. Feuchte A. Luftdruck Regen Wind Richtung Richtung Sonnenschein T Regen Taupunkt Windchill
30.11.2012 00:01 -1,0 C 92 % 1003 hPa 0,0 l/m 12,5 km/h (3 Bft) N22.5 360 0 min 0 min -2,1 C -6,5 C
30.11.2012 00:16 -1,0 C 92 % 1003 hPa 0,0 l/m 14,8 km/h (3 Bft) N22.5 5 0 min 0 min -2,1 C -8,1 C
30.11.2012 00:31 -1,0 C 92 % 1003 hPa 0,0 l/m 13,3 km/h (3 Bft) N22.5 10 0 min 0 min -2,1 C -7,1 C
30.11.2012 00:46 -1,0 C 92 % 1004 hPa 0,0 l/m 12,8 km/h (3 Bft) N22.5 360 0 min 0 min -2,1 C -6,7 C
30.11.2012 01:01 -1,0 C 92 % 1004 hPa 0,0 l/m 5,6 km/h (1 Bft) N 360 0 min 0 min -2,1 C -1,0 C
30.11.2012 01:16 -1,0 C 92 % 1004 hPa 0,0 l/m 16,6 km/h (3 Bft) N22.5 5 0 min 0 min -2,1 C -9,1 C
30.11.2012 01:31 -1,0 C 92 % 1003 hPa 0,0 l/m 7,4 km/h (2 Bft) N 350 0 min 0 min -2,1 C -2,1 C
30.11.2012 01:46 -1,1 C 92 % 1003 hPa 0,0 l/m 12,0 km/h (2 Bft) N22.5 350 0 min 0 min -2,2 C -6,3 C
30.11.2012 02:01 -1,1 C 93 % 1003 hPa 0,0 l/m 5,6 km/h (1 Bft) N-NW 330 0 min 0 min -2,1 C -1,1 C
30.11.2012 02:16 -1,1 C 93 % 1004 hPa 0,0 l/m 4,5 km/h (1 Bft) N-NW 330 0 min 0 min -2,1 C -1,1 C
30.11.2012 02:31 -1,1 C 93 % 1004 hPa 0,0 l/m 0,0 km/h (0 Bft) N-NW 330 0 min 0 min -2,1 C -1,1 C
30.11.2012 02:46 -1,2 C 93 % 1004 hPa 0,0 l/m 3,5 km/h (1 Bft) N-NW 330 0 min 0 min -2,2 C -1,2 C
30.11.2012 03:01 -1,3 C 93 % 1004 hPa 0,0 l/m 0,0 km/h (0 Bft) N-NW 330 0 min 0 min -2,3 C -1,3 C
30.11.2012 03:16 -1,4 C 93 % 1004 hPa 0,0 l/m 1,6 km/h (1 Bft) NW45 305 0 min 0 min -2,4 C -1,4 C
30.11.2012 03:31 -1,3 C 93 % 1004 hPa 0,0 l/m 0,5 km/h (0 Bft) W 260 0 min 0 min -2,3 C -1,3 C
30.11.2012 03:46 -1,3 C 93 % 1004 hPa 0,0 l/m 0,0 km/h (0 Bft) W 260 0 min 0 min -2,3 C -1,3 C
30.11.2012 04:01 -1,4 C 93 % 1004 hPa 0,0 l/m 0,7 km/h (0 Bft) W 260 0 min 0 min -2,4 C -1,4 C
30.11.2012 04:16 -1,4 C 93 % 1004 hPa 0,0 l/m 0,0 km/h (0 Bft) W 260 0 min 0 min -2,4 C -1,4 C
30.11.2012 04:31 -1,4 C 93 % 1004 hPa 0,0 l/m 0,3 km/h (0 Bft) W 260 0 min 0 min -2,4 C -1,4 C
30.11.2012 04:46 -1,4 C 93 % 1004 hPa 0,0 l/m 0,3 km/h (0 Bft) W 260 0 min 0 min -2,4 C -1,4 C
30.11.2012 05:01 -1,4 C 93 % 1004 hPa 0,0 l/m 0,4 km/h (0 Bft) W 260 0 min 0 min -2,4 C -1,4 C
30.11.2012 05:16 -1,5 C 93 % 1004 hPa 0,0 l/m 1,2 km/h (1 Bft) W 260 0 min 0 min -2,5 C -1,5 C
30.11.2012 05:31 -1,5 C 93 % 1004 hPa 0,0 l/m 0,0 km/h (0 Bft) W 260 0 min 0 min -2,5 C -1,5 C
30.11.2012 05:46 -1,6 C 94 % 1004 hPa 0,0 l/m 0,0 km/h (0 Bft) W 260 0 min 0 min -2,4 C -1,6 C
30.11.2012 06:01 -1,6 C 94 % 1004 hPa 0,0 l/m 0,0 km/h (0 Bft) W 260 0 min 0 min -2,4 C -1,6 C
30.11.2012 06:16 -1,6 C 94 % 1004 hPa 0,0 l/m 0,0 km/h (0 Bft) W 260 0 min 0 min -2,4 C -1,6 C
30.11.2012 06:31 -1,6 C 94 % 1004 hPa 0,0 l/m 0,0 km/h (0 Bft) W 260 0 min 0 min -2,4 C -1,6 C
30.11.2012 06:46 -1,7 C 94 % 1004 hPa 0,0 l/m 0,0 km/h (0 Bft) W 260 0 min 0 min -2,5 C -1,7 C
30.11.2012 07:01 -1,8 C 94 % 1004 hPa 0,0 l/m 0,0 km/h (0 Bft) W 260 0 min 0 min -2,6 C -1,8 C
30.11.2012 07:16 -1,9 C 94 % 1005 hPa 0,0 l/m 0,0 km/h (0 Bft) W 260 0 min 0 min -2,7 C -1,9 C
30.11.2012 07:31 -2,0 C 94 % 1005 hPa 0,0 l/m 0,0 km/h (0 Bft) W 260 0 min 0 min -2,8 C -2,0 C
30.11.2012 07:46 -2,0 C 94 % 1005 hPa 0,0 l/m 0,0 km/h (0 Bft) W 260 0 min 0 min -2,8 C -2,0 C
30.11.2012 08:00 -2,0 C 95 % 1005 hPa 0,0 l/m 0,0 km/h (0 Bft) W 260 0 min 0 min -2,7 C -2,0 C
30.11.2012 08:16 -2,0 C 95 % 1005 hPa 0,0 l/m 0,0 km/h (0 Bft) W 260 0 min 0 min -2,7 C -2,0 C
30.11.2012 08:31 -2,0 C 95 % 1005 hPa 0,0 l/m 0,0 km/h (0 Bft) W 260 0 min 0 min -2,7 C -2,0 C
30.11.2012 08:46 -1,8 C 95 % 1005 hPa 0,0 l/m 0,0 km/h (0 Bft) W 260 0 min 0 min -2,5 C -1,8 C
30.11.2012 09:00 -1,7 C 95 % 1006 hPa 0,0 l/m 0,0 km/h (0 Bft) W 260 0 min 0 min -2,4 C -1,7 C
30.11.2012 09:15 -1,8 C 95 % 1006 hPa 0,0 l/m 0,0 km/h (0 Bft) W 260 0 min 0 min -2,5 C -1,8 C
30.11.2012 09:30 -1,8 C 95 % 1006 hPa 0,0 l/m 0,0 km/h (0 Bft) W 260 0 min 0 min -2,5 C -1,8 C
30.11.2012 09:46 -1,7 C 95 % 1006 hPa 0,0 l/m 0,0 km/h (0 Bft) W 260 0 min 0 min -2,4 C -1,7 C
30.11.2012 10:01 -1,4 C 95 % 1006 hPa 0,0 l/m 0,0 km/h (0 Bft) W 260 0 min 0 min -2,1 C -1,4 C
30.11.2012 10:16 -1,0 C 95 % 1006 hPa 0,0 l/m 0,0 km/h (0 Bft) W 260 0 min 0 min -1,7 C -1,0 C
30.11.2012 10:30 -0,6 C 96 % 1006 hPa 0,0 l/m 0,0 km/h (0 Bft) W 260 0 min 0 min -1,2 C -0,6 C
30.11.2012 10:45 -0,2 C 95 % 1006 hPa 0,0 l/m 0,8 km/h (0 Bft) W 260 0 min 0 min -0,9 C -0,2 C
30.11.2012 11:00 0,2 C 95 % 1007 hPa 0,0 l/m 0,0 km/h (0 Bft) W 260 0 min 0 min -0,5 C 0,2 C
30.11.2012 11:16 0,6 C 95 % 1007 hPa 0,0 l/m 0,0 km/h (0 Bft) W 260 0 min 0 min -0,1 C 0,6 C
30.11.2012 11:31 1,2 C 94 % 1007 hPa 0,0 l/m 0,0 km/h (0 Bft) W 260 0 min 0 min 0,3 C 1,2 C
30.11.2012 11:46 0,8 C 93 % 1007 hPa 0,0 l/m 0,0 km/h (0 Bft) W 260 0 min 0 min -0,2 C 0,8 C
30.11.2012 12:00 0,7 C 92 % 1007 hPa 0,0 l/m 0,0 km/h (0 Bft) W 260 0 min 0 min -0,4 C 0,7 C
30.11.2012 12:15 1,3 C 90 % 1006 hPa 0,0 l/m 9,0 km/h (2 Bft) NW67.5 310 0 min 0 min -0,2 C -1,2 C
30.11.2012 12:30 1,3 C 89 % 1006 hPa 0,0 l/m 12,0 km/h (2 Bft) W22.5 275 0 min 0 min -0,3 C -3,5 C
30.11.2012 12:46 1,5 C 88 % 1006 hPa 0,0 l/m 7,6 km/h (2 Bft) W22.5 265 0 min 0 min -0,3 C 0,3 C
30.11.2012 13:01 1,5 C 85 % 1007 hPa 0,0 l/m 9,4 km/h (2 Bft) N22.5 5 0 min 0 min -0,7 C -1,3 C
30.11.2012 13:16 1,8 C 85 % 1006 hPa 0,0 l/m 0,2 km/h (0 Bft) N 355 0 min 0 min -0,4 C 1,8 C
30.11.2012 13:30 1,3 C 82 % 1006 hPa 0,0 l/m 14,1 km/h (3 Bft) W45 280 0 min 0 min -1,4 C -4,9 C
30.11.2012 13:45 1,2 C 85 % 1007 hPa 0,0 l/m 7,3 km/h (2 Bft) W22.5 260 0 min 0 min -1,0 C 0,3 C
30.11.2012 14:00 1,7 C 84 % 1007 hPa 0,0 l/m 7,0 km/h (2 Bft) NW22.5 315 0 min 0 min -0,7 C 1,1 C
30.11.2012 14:16 1,4 C 81 % 1007 hPa 0,0 l/m 14,3 km/h (3 Bft) NW45 315 0 min 0 min -1,5 C -4,9 C
30.11.2012 14:31 1,1 C 82 % 1007 hPa 0,0 l/m 9,4 km/h (2 Bft) N-NW22.5 335 0 min 0 min -1,6 C -1,7 C
30.11.2012 14:46 1,2 C 83 % 1007 hPa 0,0 l/m 3,3 km/h (1 Bft) W-NW45 285 0 min 0 min -1,4 C 1,2 C
30.11.2012 15:00 1,4 C 82 % 1007 hPa 0,0 l/m 16,6 km/h (3 Bft) NW45 315 0 min 0 min -1,3 C -6,2 C
30.11.2012 15:15 0,9 C 83 % 1007 hPa 0,0 l/m 7,9 km/h (2 Bft) W22.5 280 0 min 0 min -1,7 C -0,6 C
30.11.2012 15:30 0,3 C 83 % 1007 hPa 0,0 l/m 6,8 km/h (2 Bft) W-NW22.5 285 0 min 0 min -2,2 C -0,1 C
30.11.2012 15:46 0,0 C 84 % 1007 hPa 0,0 l/m 5,4 km/h (1 Bft) W 280 0 min 0 min -2,4 C 0,0 C
30.11.2012 16:01 -0,2 C 84 % 1007 hPa 0,0 l/m 3,0 km/h (1 Bft) W22.5 275 0 min 0 min -2,6 C -0,2 C
30.11.2012 16:16 -0,5 C 84 % 1007 hPa 0,0 l/m 0,0 km/h (0 Bft) W-NW 300 0 min 0 min -2,9 C -0,5 C
30.11.2012 16:30 -0,9 C 85 % 1007 hPa 0,0 l/m 0,0 km/h (0 Bft) W-NW 300 0 min 0 min -3,1 C -0,9 C
30.11.2012 16:45 -1,6 C 85 % 1008 hPa 0,0 l/m 0,4 km/h (0 Bft) W22.5 275 0 min 0 min -3,8 C -1,6 C
30.11.2012 17:00 -2,0 C 87 % 1008 hPa 0,0 l/m 0,0 km/h (0 Bft) W 260 0 min 0 min -3,9 C -2,0 C
30.11.2012 17:16 -2,7 C 87 % 1008 hPa 0,0 l/m 0,0 km/h (0 Bft) W 260 0 min 0 min -4,6 C -2,7 C
30.11.2012 17:31 -3,1 C 88 % 1008 hPa 0,0 l/m 0,0 km/h (0 Bft) W 260 0 min 0 min -4,8 C -3,1 C
30.11.2012 17:46 -3,4 C 88 % 1008 hPa 0,0 l/m 0,0 km/h (0 Bft) W-SW 255 0 min 0 min -5,1 C -3,4 C
30.11.2012 18:00 -3,8 C 89 % 1008 hPa 0,0 l/m 0,0 km/h (0 Bft) W-SW 255 0 min 0 min -5,3 C -3,8 C
30.11.2012 18:15 -4,2 C 89 % 1008 hPa 0,0 l/m 0,0 km/h (0 Bft) W-SW 255 0 min 0 min -5,7 C -4,2 C
30.11.2012 18:30 -4,3 C 90 % 1008 hPa 0,0 l/m 0,0 km/h (0 Bft) W-SW 255 0 min 0 min -5,7 C -4,3 C
30.11.2012 18:46 -4,6 C 90 % 1008 hPa 0,0 l/m 0,0 km/h (0 Bft) W-SW 255 0 min 0 min -6,0 C -4,6 C
30.11.2012 19:01 -4,9 C 91 % 1008 hPa 0,0 l/m 0,0 km/h (0 Bft) W-SW 255 0 min 0 min -6,1 C -4,9 C
30.11.2012 19:16 -5,1 C 91 % 1009 hPa 0,0 l/m 0,0 km/h (0 Bft) W-SW 255 0 min 0 min -6,3 C -5,1 C
30.11.2012 19:15 -5,1 C 91 % 1009 hPa 0,0 l/m 0,0 km/h (0 Bft) W-SW 255 0 min 0 min -6,3 C -5,1 C
30.11.2012 19:30 -5,5 C 91 % 1008 hPa 0,0 l/m 0,0 km/h (0 Bft) W-SW 255 0 min 0 min -6,7 C -5,5 C
30.11.2012 19:46 -5,5 C 92 % 1008 hPa 0,0 l/m 1,3 km/h (1 Bft) W-SW 255 0 min 0 min -6,6 C -5,5 C
30.11.2012 20:01 -5,7 C 92 % 1008 hPa 0,0 l/m 0,0 km/h (0 Bft) W-SW 255 0 min 0 min -6,8 C -5,7 C
30.11.2012 20:16 -5,8 C 92 % 1009 hPa 0,0 l/m 0,0 km/h (0 Bft) W-SW 255 0 min 0 min -6,9 C -5,8 C
30.11.2012 20:30 -5,7 C 93 % 1009 hPa 0,0 l/m 0,0 km/h (0 Bft) W-SW 255 0 min 0 min -6,6 C -5,7 C
30.11.2012 20:45 -6,0 C 93 % 1009 hPa 0,0 l/m 0,0 km/h (0 Bft) W-SW 255 0 min 0 min -6,9 C -6,0 C
30.11.2012 21:00 -6,2 C 93 % 1009 hPa 0,0 l/m 3,6 km/h (1 Bft) W-SW 255 0 min 0 min -7,1 C -6,2 C
30.11.2012 21:16 -6,3 C 93 % 1009 hPa 0,0 l/m 0,0 km/h (0 Bft) W-SW 255 0 min 0 min -7,2 C -6,3 C
30.11.2012 21:31 -6,4 C 94 % 1009 hPa 0,0 l/m 0,0 km/h (0 Bft) W-SW 255 0 min 0 min -7,2 C -6,4 C
30.11.2012 21:45 -6,7 C 93 % 1009 hPa 0,0 l/m 0,0 km/h (0 Bft) W-SW 255 0 min 0 min -7,6 C -6,7 C
30.11.2012 22:00 -7,0 C 93 % 1009 hPa 0,0 l/m 0,0 km/h (0 Bft) W-SW 255 0 min 0 min -7,9 C -7,0 C
30.11.2012 22:15 -7,1 C 94 % 1009 hPa 0,0 l/m 0,0 km/h (0 Bft) W-SW 255 0 min 0 min -7,9 C -7,1 C
30.11.2012 22:31 -7,0 C 93 % 1009 hPa 0,0 l/m 0,0 km/h (0 Bft) W-SW 255 0 min 0 min -7,9 C -7,0 C
30.11.2012 22:46 -7,2 C 94 % 1009 hPa 0,3 l/m 0,0 km/h (0 Bft) W-SW 255 0 min 15 min -8,0 C -7,2 C
30.11.2012 23:01 -7,3 C 94 % 1009 hPa 0,0 l/m 0,0 km/h (0 Bft) W-SW 255 0 min 0 min -8,1 C -7,3 C
30.11.2012 23:15 -7,5 C 94 % 1009 hPa 0,0 l/m 2,8 km/h (1 Bft) W-SW 255 0 min 0 min -8,3 C -7,5 C
30.11.2012 23:30 -7,2 C 94 % 1009 hPa 0,0 l/m 0,0 km/h (0 Bft) W-SW 255 0 min 0 min -8,0 C -7,2 C
30.11.2012 23:46 -7,2 C 94 % 1009 hPa 0,0 l/m 0,0 km/h (0 Bft) W-SW 255 0 min 0 min -8,0 C -7,2 C
_ Min-Zeit 23:15 14:16 00:01 - 02:31 - - - - 23:15 01:16
Minimum _ -7,5 C 81 % 1003 hPa - 0,0 km/h (0 Bft) - - - - -8,3 C -9,1 C
_ Max-Zeit 13:16 10:30 19:16 22:46 01:16 - - 00:01 22:46 11:31 13:16
Maximum _ 1,8 C 96 % 1009 hPa 0,3 l/m 16,6 km/h
N (3 Bft)
- - 0 min 15 min 0,3 C 1,8 C
Durchschnitt _ -2,1 C 91 % 1006 hPa #0,3 l/m 2,6 km/h (1 Bft) N - #0 min. #15 min. -3,3 C -2,8 C